sensor_id;sensor_type;location;lat;lon;timestamp;P1;durP1;ratioP1;P2;durP2;ratioP2
42770;SDS011;28426;42.872;25.314;2024-03-25T00:01:43;5.68;;;3.60;;
42770;SDS011;28426;42.872;25.314;2024-03-25T00:04:10;6.47;;;2.83;;
42770;SDS011;28426;42.872;25.314;2024-03-25T00:06:36;5.38;;;2.80;;
42770;SDS011;28426;42.872;25.314;2024-03-25T00:09:06;7.15;;;3.83;;
42770;SDS011;28426;42.872;25.314;2024-03-25T00:11:33;7.97;;;3.85;;
42770;SDS011;28426;42.872;25.314;2024-03-25T00:14:00;6.07;;;3.25;;
42770;SDS011;28426;42.872;25.314;2024-03-25T00:16:27;6.50;;;2.97;;
42770;SDS011;28426;42.872;25.314;2024-03-25T00:18:54;6.50;;;3.38;;
42770;SDS011;28426;42.872;25.314;2024-03-25T00:21:20;5.55;;;3.22;;
42770;SDS011;28426;42.872;25.314;2024-03-25T00:23:47;6.32;;;3.08;;
42770;SDS011;28426;42.872;25.314;2024-03-25T00:26:16;8.20;;;3.92;;
42770;SDS011;28426;42.872;25.314;2024-03-25T00:28:43;8.40;;;3.78;;
42770;SDS011;28426;42.872;25.314;2024-03-25T00:31:10;8.68;;;4.25;;
42770;SDS011;28426;42.872;25.314;2024-03-25T00:33:36;8.60;;;3.70;;
42770;SDS011;28426;42.872;25.314;2024-03-25T00:36:04;5.53;;;3.38;;
42770;SDS011;28426;42.872;25.314;2024-03-25T00:38:31;7.57;;;3.88;;
42770;SDS011;28426;42.872;25.314;2024-03-25T00:40:58;6.93;;;3.88;;
42770;SDS011;28426;42.872;25.314;2024-03-25T00:43:27;8.25;;;3.38;;
42770;SDS011;28426;42.872;25.314;2024-03-25T00:45:54;7.00;;;3.75;;
42770;SDS011;28426;42.872;25.314;2024-03-25T00:48:21;6.50;;;3.17;;
42770;SDS011;28426;42.872;25.314;2024-03-25T00:50:47;5.70;;;3.28;;
42770;SDS011;28426;42.872;25.314;2024-03-25T00:53:14;7.80;;;3.30;;
42770;SDS011;28426;42.872;25.314;2024-03-25T00:55:41;5.78;;;3.25;;
42770;SDS011;28426;42.872;25.314;2024-03-25T00:58:07;5.50;;;3.42;;
42770;SDS011;28426;42.872;25.314;2024-03-25T01:00:37;8.93;;;3.63;;
42770;SDS011;28426;42.872;25.314;2024-03-25T01:03:04;7.13;;;3.30;;
42770;SDS011;28426;42.872;25.314;2024-03-25T01:05:30;7.10;;;3.72;;
42770;SDS011;28426;42.872;25.314;2024-03-25T01:07:57;6.45;;;3.40;;
42770;SDS011;28426;42.872;25.314;2024-03-25T01:10:24;7.53;;;3.60;;
42770;SDS011;28426;42.872;25.314;2024-03-25T01:12:51;6.80;;;3.75;;
42770;SDS011;28426;42.872;25.314;2024-03-25T01:15:17;7.72;;;4.07;;
42770;SDS011;28426;42.872;25.314;2024-03-25T01:17:46;10.32;;;3.70;;
42770;SDS011;28426;42.872;25.314;2024-03-25T01:20:13;5.80;;;3.67;;
42770;SDS011;28426;42.872;25.314;2024-03-25T01:22:40;8.05;;;3.70;;
42770;SDS011;28426;42.872;25.314;2024-03-25T01:25:07;6.43;;;4.00;;
42770;SDS011;28426;42.872;25.314;2024-03-25T01:27:34;8.77;;;3.92;;
42770;SDS011;28426;42.872;25.314;2024-03-25T01:30:01;5.95;;;3.97;;
42770;SDS011;28426;42.872;25.314;2024-03-25T01:32:30;7.60;;;4.00;;
42770;SDS011;28426;42.872;25.314;2024-03-25T01:35:00;8.70;;;4.32;;
42770;SDS011;28426;42.872;25.314;2024-03-25T01:37:26;7.43;;;4.25;;
42770;SDS011;28426;42.872;25.314;2024-03-25T01:39:53;8.13;;;4.80;;
42770;SDS011;28426;42.872;25.314;2024-03-25T01:42:20;5.95;;;3.58;;
42770;SDS011;28426;42.872;25.314;2024-03-25T01:44:46;8.85;;;4.40;;
42770;SDS011;28426;42.872;25.314;2024-03-25T01:47:13;10.05;;;4.00;;
42770;SDS011;28426;42.872;25.314;2024-03-25T01:49:40;6.47;;;3.67;;
42770;SDS011;28426;42.872;25.314;2024-03-25T01:52:10;5.38;;;3.00;;
42770;SDS011;28426;42.872;25.314;2024-03-25T01:54:36;3.88;;;2.28;;
42770;SDS011;28426;42.872;25.314;2024-03-25T01:57:03;4.72;;;2.10;;
42770;SDS011;28426;42.872;25.314;2024-03-25T01:59:30;5.03;;;2.47;;
42770;SDS011;28426;42.872;25.314;2024-03-25T02:01:57;5.05;;;2.38;;
42770;SDS011;28426;42.872;25.314;2024-03-25T02:04:25;3.80;;;1.60;;
42770;SDS011;28426;42.872;25.314;2024-03-25T02:06:51;5.03;;;1.98;;
42770;SDS011;28426;42.872;25.314;2024-03-25T02:09:23;3.25;;;1.35;;
42770;SDS011;28426;42.872;25.314;2024-03-25T02:11:49;3.63;;;0.90;;
42770;SDS011;28426;42.872;25.314;2024-03-25T02:14:17;1.30;;;0.80;;
42770;SDS011;28426;42.872;25.314;2024-03-25T02:16:44;2.65;;;0.80;;
42770;SDS011;28426;42.872;25.314;2024-03-25T02:19:10;3.42;;;1.00;;
42770;SDS011;28426;42.872;25.314;2024-03-25T02:21:41;1.42;;;0.63;;
42770;SDS011;28426;42.872;25.314;2024-03-25T02:24:09;2.13;;;0.60;;
42770;SDS011;28426;42.872;25.314;2024-03-25T02:26:39;1.60;;;0.68;;
42770;SDS011;28426;42.872;25.314;2024-03-25T02:29:05;2.55;;;0.90;;
42770;SDS011;28426;42.872;25.314;2024-03-25T02:31:35;2.25;;;0.75;;
42770;SDS011;28426;42.872;25.314;2024-03-25T02:34:02;1.30;;;0.65;;
42770;SDS011;28426;42.872;25.314;2024-03-25T02:36:28;1.98;;;0.75;;
42770;SDS011;28426;42.872;25.314;2024-03-25T02:38:55;1.98;;;0.85;;
42770;SDS011;28426;42.872;25.314;2024-03-25T02:41:22;2.00;;;0.85;;
42770;SDS011;28426;42.872;25.314;2024-03-25T02:43:52;1.38;;;0.60;;
42770;SDS011;28426;42.872;25.314;2024-03-25T02:46:19;2.40;;;0.60;;
42770;SDS011;28426;42.872;25.314;2024-03-25T02:48:46;1.23;;;0.65;;
42770;SDS011;28426;42.872;25.314;2024-03-25T02:51:12;1.17;;;0.52;;
42770;SDS011;28426;42.872;25.314;2024-03-25T02:53:39;0.90;;;0.40;;
42770;SDS011;28426;42.872;25.314;2024-03-25T02:56:06;1.35;;;0.47;;
42770;SDS011;28426;42.872;25.314;2024-03-25T02:58:32;1.63;;;0.38;;
42770;SDS011;28426;42.872;25.314;2024-03-25T03:01:02;0.43;;;0.20;;
42770;SDS011;28426;42.872;25.314;2024-03-25T03:03:29;0.90;;;0.60;;
42770;SDS011;28426;42.872;25.314;2024-03-25T03:05:56;0.73;;;0.30;;
42770;SDS011;28426;42.872;25.314;2024-03-25T03:08:22;2.17;;;0.47;;
42770;SDS011;28426;42.872;25.314;2024-03-25T03:10:49;2.10;;;0.45;;
42770;SDS011;28426;42.872;25.314;2024-03-25T03:13:16;2.13;;;0.75;;
42770;SDS011;28426;42.872;25.314;2024-03-25T03:15:43;0.70;;;0.40;;
42770;SDS011;28426;42.872;25.314;2024-03-25T03:18:12;2.40;;;0.43;;
42770;SDS011;28426;42.872;25.314;2024-03-25T03:20:39;1.02;;;0.45;;
42770;SDS011;28426;42.872;25.314;2024-03-25T03:23:06;1.00;;;0.30;;
42770;SDS011;28426;42.872;25.314;2024-03-25T03:25:33;1.23;;;0.30;;
42770;SDS011;28426;42.872;25.314;2024-03-25T03:28:00;1.45;;;0.20;;
42770;SDS011;28426;42.872;25.314;2024-03-25T03:30:27;1.75;;;0.30;;
42770;SDS011;28426;42.872;25.314;2024-03-25T03:32:54;1.80;;;0.40;;
42770;SDS011;28426;42.872;25.314;2024-03-25T03:35:23;2.08;;;0.68;;
42770;SDS011;28426;42.872;25.314;2024-03-25T03:37:50;1.55;;;0.50;;
42770;SDS011;28426;42.872;25.314;2024-03-25T03:40:16;0.55;;;0.20;;
42770;SDS011;28426;42.872;25.314;2024-03-25T03:42:44;0.68;;;0.30;;
42770;SDS011;28426;42.872;25.314;2024-03-25T03:45:10;0.55;;;0.40;;
42770;SDS011;28426;42.872;25.314;2024-03-25T03:47:37;1.08;;;0.40;;
42770;SDS011;28426;42.872;25.314;2024-03-25T03:50:04;1.98;;;0.30;;
42770;SDS011;28426;42.872;25.314;2024-03-25T03:52:34;0.85;;;0.40;;
42770;SDS011;28426;42.872;25.314;2024-03-25T03:55:01;0.75;;;0.25;;
42770;SDS011;28426;42.872;25.314;2024-03-25T03:57:30;0.28;;;0.10;;
42770;SDS011;28426;42.872;25.314;2024-03-25T03:59:57;0.95;;;0.10;;
42770;SDS011;28426;42.872;25.314;2024-03-25T04:02:26;1.77;;;0.40;;
42770;SDS011;28426;42.872;25.314;2024-03-25T04:04:54;1.20;;;0.40;;
42770;SDS011;28426;42.872;25.314;2024-03-25T04:07:21;0.20;;;0.20;;
42770;SDS011;28426;42.872;25.314;2024-03-25T04:09:50;0.50;;;0.40;;
42770;SDS011;28426;42.872;25.314;2024-03-25T04:12:17;0.82;;;0.40;;
42770;SDS011;28426;42.872;25.314;2024-03-25T04:14:44;1.75;;;0.50;;
42770;SDS011;28426;42.872;25.314;2024-03-25T04:17:12;1.25;;;0.75;;
42770;SDS011;28426;42.872;25.314;2024-03-25T04:19:39;1.38;;;0.65;;
42770;SDS011;28426;42.872;25.314;2024-03-25T04:22:06;0.95;;;0.52;;
42770;SDS011;28426;42.872;25.314;2024-03-25T04:24:32;1.70;;;0.55;;
42770;SDS011;28426;42.872;25.314;2024-03-25T04:27:02;0.98;;;0.50;;
42770;SDS011;28426;42.872;25.314;2024-03-25T04:29:29;0.73;;;0.40;;
42770;SDS011;28426;42.872;25.314;2024-03-25T04:31:56;0.70;;;0.40;;
42770;SDS011;28426;42.872;25.314;2024-03-25T04:34:23;1.58;;;0.68;;
42770;SDS011;28426;42.872;25.314;2024-03-25T04:36:49;2.92;;;0.90;;
42770;SDS011;28426;42.872;25.314;2024-03-25T04:39:16;2.17;;;1.10;;
42770;SDS011;28426;42.872;25.314;2024-03-25T04:41:43;2.40;;;1.00;;
42770;SDS011;28426;42.872;25.314;2024-03-25T04:44:12;3.85;;;1.50;;
42770;SDS011;28426;42.872;25.314;2024-03-25T04:46:39;2.17;;;1.00;;
42770;SDS011;28426;42.872;25.314;2024-03-25T04:49:06;3.38;;;1.83;;
42770;SDS011;28426;42.872;25.314;2024-03-25T04:51:32;3.17;;;1.77;;
42770;SDS011;28426;42.872;25.314;2024-03-25T04:53:59;2.88;;;1.35;;
42770;SDS011;28426;42.872;25.314;2024-03-25T04:56:26;4.88;;;1.38;;
42770;SDS011;28426;42.872;25.314;2024-03-25T04:58:52;2.42;;;1.00;;
42770;SDS011;28426;42.872;25.314;2024-03-25T05:01:22;2.20;;;1.02;;
42770;SDS011;28426;42.872;25.314;2024-03-25T05:03:49;2.97;;;1.13;;
42770;SDS011;28426;42.872;25.314;2024-03-25T05:06:15;1.60;;;0.70;;
42770;SDS011;28426;42.872;25.314;2024-03-25T05:08:42;1.90;;;0.98;;
42770;SDS011;28426;42.872;25.314;2024-03-25T05:11:14;2.05;;;0.90;;
42770;SDS011;28426;42.872;25.314;2024-03-25T05:13:41;1.60;;;0.80;;
42770;SDS011;28426;42.872;25.314;2024-03-25T05:16:07;3.20;;;1.30;;
42770;SDS011;28426;42.872;25.314;2024-03-25T05:18:37;5.57;;;1.92;;
42770;SDS011;28426;42.872;25.314;2024-03-25T05:21:04;3.70;;;2.03;;
42770;SDS011;28426;42.872;25.314;2024-03-25T05:23:30;5.55;;;2.75;;
42770;SDS011;28426;42.872;25.314;2024-03-25T05:25:57;6.00;;;2.78;;
42770;SDS011;28426;42.872;25.314;2024-03-25T05:28:24;6.53;;;4.00;;
42770;SDS011;28426;42.872;25.314;2024-03-25T05:30:50;9.00;;;4.90;;
42770;SDS011;28426;42.872;25.314;2024-03-25T05:33:17;8.93;;;4.70;;
42770;SDS011;28426;42.872;25.314;2024-03-25T05:35:46;12.57;;;5.55;;
42770;SDS011;28426;42.872;25.314;2024-03-25T05:38:13;11.88;;;6.00;;
42770;SDS011;28426;42.872;25.314;2024-03-25T05:40:40;7.55;;;4.60;;
42770;SDS011;28426;42.872;25.314;2024-03-25T05:43:07;8.40;;;5.75;;
42770;SDS011;28426;42.872;25.314;2024-03-25T05:45:33;8.80;;;5.30;;
42770;SDS011;28426;42.872;25.314;2024-03-25T05:48:00;11.80;;;5.57;;
42770;SDS011;28426;42.872;25.314;2024-03-25T05:50:27;13.25;;;6.40;;
42770;SDS011;28426;42.872;25.314;2024-03-25T05:52:56;12.55;;;6.85;;
42770;SDS011;28426;42.872;25.314;2024-03-25T05:55:23;11.95;;;6.60;;
42770;SDS011;28426;42.872;25.314;2024-03-25T05:57:50;11.50;;;6.25;;
42770;SDS011;28426;42.872;25.314;2024-03-25T06:00:17;12.25;;;6.65;;
42770;SDS011;28426;42.872;25.314;2024-03-25T06:02:44;11.25;;;6.13;;
42770;SDS011;28426;42.872;25.314;2024-03-25T06:05:10;22.42;;;10.73;;
42770;SDS011;28426;42.872;25.314;2024-03-25T06:07:37;20.92;;;11.35;;
42770;SDS011;28426;42.872;25.314;2024-03-25T06:10:07;13.00;;;7.88;;
42770;SDS011;28426;42.872;25.314;2024-03-25T06:12:34;13.68;;;7.65;;
42770;SDS011;28426;42.872;25.314;2024-03-25T06:15:01;13.57;;;7.60;;
42770;SDS011;28426;42.872;25.314;2024-03-25T06:17:29;13.20;;;7.78;;
42770;SDS011;28426;42.872;25.314;2024-03-25T06:19:56;13.20;;;8.63;;
42770;SDS011;28426;42.872;25.314;2024-03-25T06:22:22;13.02;;;7.20;;
42770;SDS011;28426;42.872;25.314;2024-03-25T06:24:49;10.98;;;6.25;;
42770;SDS011;28426;42.872;25.314;2024-03-25T06:27:18;14.68;;;7.60;;
42770;SDS011;28426;42.872;25.314;2024-03-25T06:29:45;14.45;;;7.07;;
42770;SDS011;28426;42.872;25.314;2024-03-25T06:32:12;13.10;;;7.75;;
42770;SDS011;28426;42.872;25.314;2024-03-25T06:34:55;12.05;;;7.70;;
42770;SDS011;28426;42.872;25.314;2024-03-25T06:37:22;17.00;;;8.75;;
42770;SDS011;28426;42.872;25.314;2024-03-25T06:39:49;12.48;;;7.45;;
42770;SDS011;28426;42.872;25.314;2024-03-25T06:42:18;11.77;;;7.28;;
42770;SDS011;28426;42.872;25.314;2024-03-25T06:44:45;12.00;;;7.30;;
42770;SDS011;28426;42.872;25.314;2024-03-25T06:47:12;13.30;;;7.43;;
42770;SDS011;28426;42.872;25.314;2024-03-25T06:49:38;11.80;;;6.82;;
42770;SDS011;28426;42.872;25.314;2024-03-25T06:52:05;13.55;;;7.45;;
42770;SDS011;28426;42.872;25.314;2024-03-25T06:54:32;12.13;;;7.45;;
42770;SDS011;28426;42.872;25.314;2024-03-25T06:56:59;12.68;;;7.80;;
42770;SDS011;28426;42.872;25.314;2024-03-25T06:59:28;12.93;;;7.68;;
42770;SDS011;28426;42.872;25.314;2024-03-25T07:01:55;13.20;;;7.50;;
42770;SDS011;28426;42.872;25.314;2024-03-25T07:04:21;13.45;;;7.03;;
42770;SDS011;28426;42.872;25.314;2024-03-25T07:06:48;12.70;;;7.70;;
42770;SDS011;28426;42.872;25.314;2024-03-25T07:09:15;15.25;;;7.40;;
42770;SDS011;28426;42.872;25.314;2024-03-25T07:11:42;12.10;;;7.03;;
42770;SDS011;28426;42.872;25.314;2024-03-25T07:14:08;14.85;;;7.70;;
42770;SDS011;28426;42.872;25.314;2024-03-25T07:16:38;11.73;;;6.75;;
42770;SDS011;28426;42.872;25.314;2024-03-25T07:19:05;10.27;;;6.50;;
42770;SDS011;28426;42.872;25.314;2024-03-25T07:21:31;12.52;;;7.45;;
42770;SDS011;28426;42.872;25.314;2024-03-25T07:23:58;10.50;;;6.55;;
42770;SDS011;28426;42.872;25.314;2024-03-25T07:26:25;11.77;;;6.53;;
42770;SDS011;28426;42.872;25.314;2024-03-25T07:28:51;12.98;;;7.57;;
42770;SDS011;28426;42.872;25.314;2024-03-25T07:31:18;10.63;;;6.70;;
42770;SDS011;28426;42.872;25.314;2024-03-25T07:33:47;11.43;;;6.25;;
42770;SDS011;28426;42.872;25.314;2024-03-25T07:36:14;10.05;;;5.70;;
42770;SDS011;28426;42.872;25.314;2024-03-25T07:38:41;12.35;;;5.55;;
42770;SDS011;28426;42.872;25.314;2024-03-25T07:41:08;10.73;;;6.40;;
42770;SDS011;28426;42.872;25.314;2024-03-25T07:43:35;13.18;;;7.13;;
42770;SDS011;28426;42.872;25.314;2024-03-25T07:46:02;11.48;;;6.43;;
42770;SDS011;28426;42.872;25.314;2024-03-25T07:48:29;10.70;;;6.25;;
42770;SDS011;28426;42.872;25.314;2024-03-25T07:50:58;10.70;;;6.65;;
42770;SDS011;28426;42.872;25.314;2024-03-25T07:53:25;10.05;;;5.97;;
42770;SDS011;28426;42.872;25.314;2024-03-25T07:55:52;11.95;;;6.20;;
42770;SDS011;28426;42.872;25.314;2024-03-25T07:58:18;10.20;;;5.57;;
42770;SDS011;28426;42.872;25.314;2024-03-25T08:00:45;9.75;;;6.30;;
42770;SDS011;28426;42.872;25.314;2024-03-25T08:03:12;9.00;;;5.60;;
42770;SDS011;28426;42.872;25.314;2024-03-25T08:05:39;10.18;;;5.95;;
42770;SDS011;28426;42.872;25.314;2024-03-25T08:08:08;10.25;;;5.93;;
42770;SDS011;28426;42.872;25.314;2024-03-25T08:10:35;11.35;;;6.00;;
42770;SDS011;28426;42.872;25.314;2024-03-25T08:13:03;8.13;;;5.18;;
42770;SDS011;28426;42.872;25.314;2024-03-25T08:15:30;8.95;;;5.15;;
42770;SDS011;28426;42.872;25.314;2024-03-25T08:17:57;9.60;;;6.05;;
42770;SDS011;28426;42.872;25.314;2024-03-25T08:20:24;8.60;;;5.32;;
42770;SDS011;28426;42.872;25.314;2024-03-25T08:22:50;10.35;;;5.72;;
42770;SDS011;28426;42.872;25.314;2024-03-25T08:25:19;10.20;;;6.18;;
42770;SDS011;28426;42.872;25.314;2024-03-25T08:27:46;9.63;;;6.18;;
42770;SDS011;28426;42.872;25.314;2024-03-25T08:30:13;11.57;;;6.50;;
42770;SDS011;28426;42.872;25.314;2024-03-25T08:32:40;9.80;;;6.65;;
42770;SDS011;28426;42.872;25.314;2024-03-25T08:35:07;11.20;;;6.65;;
42770;SDS011;28426;42.872;25.314;2024-03-25T08:37:34;10.65;;;6.40;;
42770;SDS011;28426;42.872;25.314;2024-03-25T08:40:00;10.13;;;5.95;;
42770;SDS011;28426;42.872;25.314;2024-03-25T08:42:32;11.30;;;7.70;;
42770;SDS011;28426;42.872;25.314;2024-03-25T08:44:58;11.73;;;6.72;;
42770;SDS011;28426;42.872;25.314;2024-03-25T08:47:26;11.95;;;6.90;;
42770;SDS011;28426;42.872;25.314;2024-03-25T08:49:52;13.13;;;7.53;;
42770;SDS011;28426;42.872;25.314;2024-03-25T08:52:19;10.52;;;6.95;;
42770;SDS011;28426;42.872;25.314;2024-03-25T08:54:46;12.95;;;7.95;;
42770;SDS011;28426;42.872;25.314;2024-03-25T08:57:13;11.90;;;7.25;;
42770;SDS011;28426;42.872;25.314;2024-03-25T08:59:42;12.68;;;7.78;;
42770;SDS011;28426;42.872;25.314;2024-03-25T09:02:09;13.85;;;7.68;;
42770;SDS011;28426;42.872;25.314;2024-03-25T09:04:35;11.68;;;7.28;;
42770;SDS011;28426;42.872;25.314;2024-03-25T09:07:02;14.13;;;7.68;;
42770;SDS011;28426;42.872;25.314;2024-03-25T09:09:29;12.30;;;8.18;;
42770;SDS011;28426;42.872;25.314;2024-03-25T09:12:10;12.20;;;7.35;;
42770;SDS011;28426;42.872;25.314;2024-03-25T09:14:37;13.70;;;8.30;;
42770;SDS011;28426;42.872;25.314;2024-03-25T09:17:07;14.73;;;8.52;;
42770;SDS011;28426;42.872;25.314;2024-03-25T09:19:34;14.63;;;8.93;;
42770;SDS011;28426;42.872;25.314;2024-03-25T09:22:00;12.27;;;7.75;;
42770;SDS011;28426;42.872;25.314;2024-03-25T09:24:27;11.65;;;7.95;;
42770;SDS011;28426;42.872;25.314;2024-03-25T09:26:54;11.57;;;7.88;;
42770;SDS011;28426;42.872;25.314;2024-03-25T09:29:21;12.13;;;7.55;;
42770;SDS011;28426;42.872;25.314;2024-03-25T09:31:47;10.57;;;7.22;;
42770;SDS011;28426;42.872;25.314;2024-03-25T09:34:17;10.25;;;6.63;;
42770;SDS011;28426;42.872;25.314;2024-03-25T09:36:43;9.65;;;6.40;;
42770;SDS011;28426;42.872;25.314;2024-03-25T09:39:10;9.45;;;5.95;;
42770;SDS011;28426;42.872;25.314;2024-03-25T09:41:37;9.45;;;6.32;;
42770;SDS011;28426;42.872;25.314;2024-03-25T09:44:08;9.70;;;6.22;;
42770;SDS011;28426;42.872;25.314;2024-03-25T09:46:35;9.32;;;5.60;;
42770;SDS011;28426;42.872;25.314;2024-03-25T09:49:02;9.73;;;5.88;;
42770;SDS011;28426;42.872;25.314;2024-03-25T09:51:32;10.13;;;5.32;;
42770;SDS011;28426;42.872;25.314;2024-03-25T09:53:59;7.88;;;5.65;;
42770;SDS011;28426;42.872;25.314;2024-03-25T09:56:26;11.32;;;6.20;;
42770;SDS011;28426;42.872;25.314;2024-03-25T09:58:53;9.27;;;5.80;;
42770;SDS011;28426;42.872;25.314;2024-03-25T10:01:20;7.90;;;5.35;;
42770;SDS011;28426;42.872;25.314;2024-03-25T10:03:47;10.55;;;6.22;;
42770;SDS011;28426;42.872;25.314;2024-03-25T10:06:14;9.73;;;5.80;;
42770;SDS011;28426;42.872;25.314;2024-03-25T10:08:45;9.15;;;5.82;;
42770;SDS011;28426;42.872;25.314;2024-03-25T10:11:12;14.40;;;7.88;;
42770;SDS011;28426;42.872;25.314;2024-03-25T10:13:40;10.02;;;7.10;;
42770;SDS011;28426;42.872;25.314;2024-03-25T10:16:07;10.85;;;6.35;;
42770;SDS011;28426;42.872;25.314;2024-03-25T10:18:34;12.07;;;7.22;;
42770;SDS011;28426;42.872;25.314;2024-03-25T10:21:00;10.10;;;6.50;;
42770;SDS011;28426;42.872;25.314;2024-03-25T10:23:27;13.00;;;7.57;;
42770;SDS011;28426;42.872;25.314;2024-03-25T10:25:57;11.95;;;7.25;;
42770;SDS011;28426;42.872;25.314;2024-03-25T10:28:23;10.57;;;6.53;;
42770;SDS011;28426;42.872;25.314;2024-03-25T10:30:50;10.57;;;7.05;;
42770;SDS011;28426;42.872;25.314;2024-03-25T10:33:17;11.75;;;6.75;;
42770;SDS011;28426;42.872;25.314;2024-03-25T10:35:44;12.57;;;7.55;;
42770;SDS011;28426;42.872;25.314;2024-03-25T10:38:18;10.15;;;6.78;;
42770;SDS011;28426;42.872;25.314;2024-03-25T10:40:45;10.00;;;6.35;;
42770;SDS011;28426;42.872;25.314;2024-03-25T10:43:16;11.13;;;6.72;;
42770;SDS011;28426;42.872;25.314;2024-03-25T10:45:45;9.02;;;6.38;;
42770;SDS011;28426;42.872;25.314;2024-03-25T10:48:14;9.50;;;6.32;;
42770;SDS011;28426;42.872;25.314;2024-03-25T10:50:43;9.15;;;6.43;;
42770;SDS011;28426;42.872;25.314;2024-03-25T10:53:11;9.93;;;6.32;;
42770;SDS011;28426;42.872;25.314;2024-03-25T10:55:40;10.45;;;6.93;;
42770;SDS011;28426;42.872;25.314;2024-03-25T10:58:07;10.68;;;6.60;;
42770;SDS011;28426;42.872;25.314;2024-03-25T11:00:37;10.50;;;6.40;;
42770;SDS011;28426;42.872;25.314;2024-03-25T11:03:04;11.90;;;7.32;;
42770;SDS011;28426;42.872;25.314;2024-03-25T11:05:32;10.88;;;6.10;;
42770;SDS011;28426;42.872;25.314;2024-03-25T11:08:05;8.88;;;5.90;;
42770;SDS011;28426;42.872;25.314;2024-03-25T11:10:39;7.95;;;5.25;;
42770;SDS011;28426;42.872;25.314;2024-03-25T11:13:09;7.47;;;5.03;;
42770;SDS011;28426;42.872;25.314;2024-03-25T11:15:40;7.63;;;4.25;;
42770;SDS011;28426;42.872;25.314;2024-03-25T11:18:10;6.53;;;4.00;;
42770;SDS011;28426;42.872;25.314;2024-03-25T11:20:42;5.15;;;3.50;;
42770;SDS011;28426;42.872;25.314;2024-03-25T11:23:10;5.18;;;3.38;;
42770;SDS011;28426;42.872;25.314;2024-03-25T11:25:37;6.50;;;3.22;;
42770;SDS011;28426;42.872;25.314;2024-03-25T11:28:05;4.53;;;2.92;;
42770;SDS011;28426;42.872;25.314;2024-03-25T11:30:32;6.40;;;3.08;;
42770;SDS011;28426;42.872;25.314;2024-03-25T11:33:03;4.65;;;3.00;;
42770;SDS011;28426;42.872;25.314;2024-03-25T11:35:36;5.65;;;3.17;;
42770;SDS011;28426;42.872;25.314;2024-03-25T11:38:04;5.35;;;3.35;;
42770;SDS011;28426;42.872;25.314;2024-03-25T11:40:31;6.20;;;3.60;;
42770;SDS011;28426;42.872;25.314;2024-03-25T11:42:58;6.75;;;3.53;;
42770;SDS011;28426;42.872;25.314;2024-03-25T11:45:25;6.50;;;3.30;;
42770;SDS011;28426;42.872;25.314;2024-03-25T11:47:52;6.57;;;3.75;;
42770;SDS011;28426;42.872;25.314;2024-03-25T11:50:21;6.57;;;4.10;;
42770;SDS011;28426;42.872;25.314;2024-03-25T11:52:48;5.63;;;3.80;;
42770;SDS011;28426;42.872;25.314;2024-03-25T11:55:16;9.05;;;3.80;;
42770;SDS011;28426;42.872;25.314;2024-03-25T11:57:45;4.85;;;2.83;;
42770;SDS011;28426;42.872;25.314;2024-03-25T12:00:12;5.40;;;3.20;;
42770;SDS011;28426;42.872;25.314;2024-03-25T12:02:42;4.55;;;2.70;;
42770;SDS011;28426;42.872;25.314;2024-03-25T12:05:10;7.93;;;3.03;;
42770;SDS011;28426;42.872;25.314;2024-03-25T12:07:40;6.97;;;3.67;;
42770;SDS011;28426;42.872;25.314;2024-03-25T12:10:07;5.70;;;3.42;;
42770;SDS011;28426;42.872;25.314;2024-03-25T12:12:54;6.45;;;4.03;;
42770;SDS011;28426;42.872;25.314;2024-03-25T12:15:22;6.32;;;3.75;;
42770;SDS011;28426;42.872;25.314;2024-03-25T12:17:49;6.57;;;3.42;;
42770;SDS011;28426;42.872;25.314;2024-03-25T12:20:19;5.88;;;3.70;;
42770;SDS011;28426;42.872;25.314;2024-03-25T12:22:49;6.43;;;4.10;;
42770;SDS011;28426;42.872;25.314;2024-03-25T12:25:18;8.02;;;3.90;;
42770;SDS011;28426;42.872;25.314;2024-03-25T12:27:46;6.10;;;3.42;;
42770;SDS011;28426;42.872;25.314;2024-03-25T12:30:13;8.30;;;3.25;;
42770;SDS011;28426;42.872;25.314;2024-03-25T12:32:40;11.38;;;6.55;;
42770;SDS011;28426;42.872;25.314;2024-03-25T12:35:09;6.57;;;3.60;;
42770;SDS011;28426;42.872;25.314;2024-03-25T12:37:37;8.95;;;5.35;;
42770;SDS011;28426;42.872;25.314;2024-03-25T12:40:09;6.18;;;3.00;;
42770;SDS011;28426;42.872;25.314;2024-03-25T12:42:37;5.05;;;3.05;;
42770;SDS011;28426;42.872;25.314;2024-03-25T12:45:04;5.78;;;3.10;;
42770;SDS011;28426;42.872;25.314;2024-03-25T12:47:32;7.70;;;3.50;;
42770;SDS011;28426;42.872;25.314;2024-03-25T12:49:59;7.65;;;3.80;;
42770;SDS011;28426;42.872;25.314;2024-03-25T12:52:26;10.02;;;4.95;;
42770;SDS011;28426;42.872;25.314;2024-03-25T12:54:53;12.40;;;4.68;;
42770;SDS011;28426;42.872;25.314;2024-03-25T12:57:22;5.43;;;2.75;;
42770;SDS011;28426;42.872;25.314;2024-03-25T12:59:49;5.72;;;2.80;;
42770;SDS011;28426;42.872;25.314;2024-03-25T13:02:16;4.78;;;2.85;;
42770;SDS011;28426;42.872;25.314;2024-03-25T13:04:43;5.43;;;3.10;;
42770;SDS011;28426;42.872;25.314;2024-03-25T13:07:09;5.50;;;3.15;;
42770;SDS011;28426;42.872;25.314;2024-03-25T13:09:36;5.68;;;3.47;;
42770;SDS011;28426;42.872;25.314;2024-03-25T13:12:03;8.05;;;3.75;;
42770;SDS011;28426;42.872;25.314;2024-03-25T13:14:33;8.05;;;4.05;;
42770;SDS011;28426;42.872;25.314;2024-03-25T13:16:59;8.68;;;4.60;;
42770;SDS011;28426;42.872;25.314;2024-03-25T13:19:26;6.63;;;3.90;;
42770;SDS011;28426;42.872;25.314;2024-03-25T13:21:53;6.93;;;3.40;;
42770;SDS011;28426;42.872;25.314;2024-03-25T13:24:21;6.35;;;4.00;;
42770;SDS011;28426;42.872;25.314;2024-03-25T13:26:48;9.23;;;4.72;;
42770;SDS011;28426;42.872;25.314;2024-03-25T13:29:14;8.95;;;5.13;;
42770;SDS011;28426;42.872;25.314;2024-03-25T13:31:44;9.75;;;4.40;;
42770;SDS011;28426;42.872;25.314;2024-03-25T13:34:10;9.00;;;4.40;;
42770;SDS011;28426;42.872;25.314;2024-03-25T13:36:37;6.95;;;3.88;;
42770;SDS011;28426;42.872;25.314;2024-03-25T13:39:04;7.10;;;4.15;;
42770;SDS011;28426;42.872;25.314;2024-03-25T13:41:31;6.57;;;4.30;;
42770;SDS011;28426;42.872;25.314;2024-03-25T13:43:58;9.93;;;4.38;;
42770;SDS011;28426;42.872;25.314;2024-03-25T13:46:27;9.23;;;5.15;;
42770;SDS011;28426;42.872;25.314;2024-03-25T13:48:57;10.52;;;5.57;;
42770;SDS011;28426;42.872;25.314;2024-03-25T13:51:23;7.78;;;4.60;;
42770;SDS011;28426;42.872;25.314;2024-03-25T13:53:50;8.77;;;4.85;;
42770;SDS011;28426;42.872;25.314;2024-03-25T13:56:17;8.20;;;4.85;;
42770;SDS011;28426;42.872;25.314;2024-03-25T13:58:44;9.35;;;4.78;;
42770;SDS011;28426;42.872;25.314;2024-03-25T14:01:10;9.60;;;4.45;;
42770;SDS011;28426;42.872;25.314;2024-03-25T14:03:37;8.20;;;4.90;;
42770;SDS011;28426;42.872;25.314;2024-03-25T14:06:07;8.25;;;4.70;;
42770;SDS011;28426;42.872;25.314;2024-03-25T14:08:33;10.18;;;4.93;;
42770;SDS011;28426;42.872;25.314;2024-03-25T14:11:01;8.43;;;4.93;;
42770;SDS011;28426;42.872;25.314;2024-03-25T14:13:28;8.30;;;4.80;;
42770;SDS011;28426;42.872;25.314;2024-03-25T14:15:55;9.88;;;6.38;;
42770;SDS011;28426;42.872;25.314;2024-03-25T14:18:22;9.30;;;5.65;;
42770;SDS011;28426;42.872;25.314;2024-03-25T14:20:50;8.38;;;5.80;;
42770;SDS011;28426;42.872;25.314;2024-03-25T14:23:20;8.35;;;5.95;;
42770;SDS011;28426;42.872;25.314;2024-03-25T14:25:47;10.80;;;5.95;;
42770;SDS011;28426;42.872;25.314;2024-03-25T14:28:14;8.68;;;5.82;;
42770;SDS011;28426;42.872;25.314;2024-03-25T14:30:41;10.07;;;6.18;;
42770;SDS011;28426;42.872;25.314;2024-03-25T14:33:07;9.27;;;5.88;;